Time;durP1;ratioP1;P1;durP2;ratioP2;P2;SDS_P1;SDS_P2;PMS_P1;PMS_P2;Temp;Humidity;BMP_temperature;BMP_pressure;BME280_temperature;BME280_humidity;BME280_pressure;Samples;Min_cycle;Max_cycle;Signal;HPM_P1;HPM_P2
2024/01/29 00:02:22;;;;;;;3.80;2.10;;;7.50;99.90;;;;;;5012924;28;20597;-20
2024/01/29 00:04:48;;;;;;;4.03;2.00;;;7.50;99.90;;;;;;5013238;28;20042;-21
2024/01/29 00:07:13;;;;;;;3.65;1.77;;;7.50;99.90;;;;;;5011396;28;20466;-19
2024/01/29 00:09:39;;;;;;;3.50;1.90;;;7.50;99.90;;;;;;5002711;28;20446;-21
2024/01/29 00:12:05;;;;;;;3.25;2.05;;;7.50;99.90;;;;;;5013288;28;20044;-23
2024/01/29 00:14:31;;;;;;;4.55;2.13;;;7.50;99.90;;;;;;4982111;28;20117;-19
2024/01/29 00:16:58;;;;;;;3.67;2.00;;;7.60;99.90;;;;;;5013204;28;20128;-20
2024/01/29 00:19:23;;;;;;;4.22;2.20;;;10.40;99.90;;;;;;5012544;28;20327;-20
2024/01/29 00:21:50;;;;;;;3.80;2.13;;;7.60;99.90;;;;;;5012574;28;20500;-21
2024/01/29 00:24:16;;;;;;;4.05;2.20;;;7.70;99.90;;;;;;4997488;28;20037;-21
2024/01/29 00:26:41;;;;;;;4.70;2.30;;;7.70;99.90;;;;;;5013437;28;20334;-21
2024/01/29 00:29:07;;;;;;;4.70;2.17;;;7.70;99.90;;;;;;4999979;28;20095;-21
2024/01/29 00:31:33;;;;;;;3.75;2.03;;;7.70;99.90;;;;;;5012819;28;20045;-21
2024/01/29 00:33:59;;;;;;;3.70;2.20;;;7.80;99.90;;;;;;5014828;28;20673;-22
2024/01/29 00:36:24;;;;;;;3.65;2.03;;;7.80;99.90;;;;;;4994427;28;20041;-23
2024/01/29 00:38:50;;;;;;;4.70;2.10;;;7.80;99.90;;;;;;5014877;28;20156;-22
2024/01/29 00:41:16;;;;;;;3.38;2.10;;;7.80;99.90;;;;;;5011079;28;20056;-22
2024/01/29 00:43:41;;;;;;;3.97;2.00;;;7.80;99.90;;;;;;5012057;28;20128;-21
2024/01/29 00:46:07;;;;;;;3.40;1.90;;;7.80;99.90;;;;;;5013798;28;20066;-20
2024/01/29 00:48:33;;;;;;;4.43;2.20;;;7.90;99.90;;;;;;5014296;28;20704;-20
2024/01/29 00:51:01;;;;;;;3.50;1.90;;;7.90;99.90;;;;;;5005973;28;20041;-23
2024/01/29 00:53:27;;;;;;;3.40;2.08;;;7.90;99.90;;;;;;4991406;28;20033;-21
2024/01/29 00:55:53;;;;;;;3.15;1.95;;;7.90;99.90;;;;;;4980695;28;20047;-20
2024/01/29 00:58:20;;;;;;;4.10;1.87;;;7.90;99.90;;;;;;4982080;28;20276;-21
2024/01/29 01:00:47;;;;;;;3.33;1.92;;;7.90;99.90;;;;;;4981233;28;20437;-22
2024/01/29 01:03:14;;;;;;;3.42;1.98;;;7.90;99.90;;;;;;4982183;28;20670;-20
2024/01/29 01:05:40;;;;;;;2.40;1.55;;;7.90;99.90;;;;;;4994953;28;20546;-22
2024/01/29 01:08:06;;;;;;;2.92;1.75;;;7.90;99.90;;;;;;4993211;28;20057;-22
2024/01/29 01:10:31;;;;;;;3.43;1.50;;;7.90;99.90;;;;;;4994855;28;20069;-20
2024/01/29 01:12:57;;;;;;;3.95;1.90;;;7.90;99.90;;;;;;4980702;28;20425;-21
2024/01/29 01:15:23;;;;;;;3.03;1.70;;;7.90;99.90;;;;;;4993466;28;20034;-22
2024/01/29 01:17:49;;;;;;;3.23;1.87;;;7.80;99.90;;;;;;4995853;28;20045;-21
2024/01/29 01:20:15;;;;;;;2.83;1.50;;;7.90;99.90;;;;;;4975956;28;20393;-20
2024/01/29 01:22:40;;;;;;;3.47;1.70;;;7.80;99.90;;;;;;4991301;28;20034;-19
2024/01/29 01:25:06;;;;;;;4.10;2.15;;;7.80;99.90;;;;;;4991023;28;20039;-20
2024/01/29 01:27:33;;;;;;;3.88;1.80;;;7.80;99.90;;;;;;4993395;28;20045;-20
2024/01/29 01:29:59;;;;;;;2.70;1.60;;;7.70;99.90;;;;;;4981222;28;20110;-20
2024/01/29 01:32:24;;;;;;;3.63;1.60;;;7.70;99.90;;;;;;4991995;28;20037;-22
2024/01/29 01:34:50;;;;;;;3.20;1.80;;;7.60;99.90;;;;;;4993691;28;20149;-19
2024/01/29 01:37:16;;;;;;;3.80;1.70;;;7.50;99.90;;;;;;4977833;28;20101;-20
2024/01/29 01:39:42;;;;;;;3.55;1.85;;;7.50;99.90;;;;;;4962338;28;20074;-21
2024/01/29 01:42:09;;;;;;;3.10;1.83;;;7.40;99.90;;;;;;4994262;28;20603;-20
2024/01/29 01:44:35;;;;;;;2.58;1.52;;;7.40;99.90;;;;;;4992619;28;20038;-21
2024/01/29 01:47:01;;;;;;;4.07;1.73;;;7.40;99.90;;;;;;4946274;28;20040;-24
2024/01/29 01:49:28;;;;;;;3.35;1.80;;;7.40;99.90;;;;;;4978703;28;20121;-20
2024/01/29 01:51:53;;;;;;;2.87;1.80;;;7.40;99.90;;;;;;4992858;28;20037;-21
2024/01/29 01:54:20;;;;;;;3.67;1.65;;;7.40;99.90;;;;;;4991567;28;20030;-22
2024/01/29 01:56:47;;;;;;;3.75;1.77;;;7.30;99.90;;;;;;4992521;28;20126;-22
2024/01/29 01:59:13;;;;;;;2.95;1.83;;;7.30;99.90;;;;;;4979611;28;20034;-21
2024/01/29 02:01:39;;;;;;;3.60;1.73;;;7.30;99.90;;;;;;4992381;28;20045;-22
2024/01/29 02:04:05;;;;;;;3.47;1.83;;;7.30;99.90;;;;;;4994676;28;20378;-20
2024/01/29 02:06:31;;;;;;;3.70;1.90;;;7.30;99.90;;;;;;4992476;28;20077;-21
2024/01/29 02:08:58;;;;;;;2.75;1.60;;;8.40;99.90;;;;;;4992214;28;20030;-21
2024/01/29 02:11:24;;;;;;;3.03;1.73;;;7.30;99.90;;;;;;4991922;28;20022;-20
2024/01/29 02:13:49;;;;;;;2.92;1.73;;;7.30;99.90;;;;;;4993059;28;20244;-22
2024/01/29 02:16:15;;;;;;;2.80;1.65;;;7.30;99.90;;;;;;4978756;28;20117;-19
2024/01/29 02:18:41;;;;;;;3.67;1.70;;;7.30;99.90;;;;;;4992089;28;20042;-22
2024/01/29 02:21:07;;;;;;;3.08;1.75;;;7.30;99.90;;;;;;4993589;28;20038;-24
2024/01/29 02:23:32;;;;;;;2.73;1.60;;;7.20;99.90;;;;;;4992711;28;20043;-24
2024/01/29 02:25:58;;;;;;;3.45;1.52;;;7.20;99.90;;;;;;4993714;28;20042;-21
2024/01/29 02:28:25;;;;;;;3.43;1.80;;;7.20;99.90;;;;;;4974072;28;20026;-21
2024/01/29 02:30:51;;;;;;;3.47;1.70;;;7.20;99.90;;;;;;4976236;28;20041;-20
2024/01/29 02:33:17;;;;;;;3.28;1.65;;;7.20;99.90;;;;;;4991764;28;20030;-21
2024/01/29 02:35:48;;;;;;;4.30;1.90;;;7.20;99.90;;;;;;4991002;28;20077;-20
2024/01/29 02:38:14;;;;;;;2.97;1.90;;;7.20;99.90;;;;;;4991203;28;20089;-21
2024/01/29 02:40:39;;;;;;;2.80;1.70;;;7.10;99.90;;;;;;4991317;28;20558;-20
2024/01/29 02:43:05;;;;;;;2.53;1.63;;;7.10;99.90;;;;;;4991588;28;20045;-20
2024/01/29 02:45:31;;;;;;;3.25;1.83;;;7.10;99.90;;;;;;4973804;28;20046;-24
2024/01/29 02:47:57;;;;;;;3.53;1.70;;;7.10;99.90;;;;;;4981009;28;20041;-20
2024/01/29 02:50:22;;;;;;;3.15;1.67;;;7.10;99.90;;;;;;4999896;28;20111;-20
2024/01/29 02:52:49;;;;;;;2.93;1.97;;;7.10;99.90;;;;;;5012863;28;20089;-21
2024/01/29 02:55:14;;;;;;;3.90;1.77;;;7.10;99.90;;;;;;5012748;28;20429;-20
2024/01/29 02:57:40;;;;;;;3.25;1.70;;;7.10;99.90;;;;;;5015982;28;20041;-20
2024/01/29 03:00:07;;;;;;;2.80;1.60;;;7.00;99.90;;;;;;5000671;28;20034;-21
2024/01/29 03:02:33;;;;;;;3.08;1.63;;;7.00;99.90;;;;;;5000843;28;20050;-24
2024/01/29 03:04:58;;;;;;;2.47;1.53;;;7.00;99.90;;;;;;5016180;28;20104;-21
2024/01/29 03:07:24;;;;;;;3.60;1.67;;;7.00;99.90;;;;;;5015941;28;20296;-23
2024/01/29 03:09:50;;;;;;;2.88;1.70;;;7.00;99.90;;;;;;4999907;28;20044;-19
2024/01/29 03:12:15;;;;;;;4.13;1.80;;;7.00;99.90;;;;;;5013788;28;20029;-21
2024/01/29 03:14:41;;;;;;;2.37;1.47;;;6.90;99.90;;;;;;4998034;28;20116;-20
2024/01/29 03:17:07;;;;;;;3.60;2.13;;;6.90;99.90;;;;;;5002852;28;20697;-21
2024/01/29 03:19:33;;;;;;;2.28;1.40;;;6.80;99.90;;;;;;4981874;28;20044;-21
2024/01/29 03:21:59;;;;;;;1.90;1.27;;;6.80;99.90;;;;;;5015494;28;20037;-21
2024/01/29 03:24:24;;;;;;;3.55;1.60;;;6.80;99.90;;;;;;4985806;28;20045;-19
2024/01/29 03:26:50;;;;;;;3.03;1.60;;;6.70;99.90;;;;;;5012746;28;20046;-23
2024/01/29 03:29:16;;;;;;;2.25;1.33;;;6.70;99.90;;;;;;5002296;28;20095;-21
2024/01/29 03:31:41;;;;;;;2.67;1.60;;;6.70;99.90;;;;;;5001242;28;20033;-21
2024/01/29 03:34:08;;;;;;;2.80;1.50;;;6.60;99.90;;;;;;5016621;28;20277;-23
2024/01/29 03:36:34;;;;;;;2.95;1.42;;;;;;;;;;4997857;28;20033;-21
2024/01/29 03:39:00;;;;;;;2.78;1.48;;;6.60;99.90;;;;;;5001609;28;20057;-22
2024/01/29 03:41:25;;;;;;;3.40;1.53;;;6.50;99.90;;;;;;5012194;28;20041;-20
2024/01/29 03:43:51;;;;;;;2.30;1.38;;;6.50;99.90;;;;;;5015389;28;20072;-20
2024/01/29 03:46:17;;;;;;;4.03;1.50;;;6.50;99.90;;;;;;5012876;28;20080;-21
2024/01/29 03:48:43;;;;;;;2.72;1.65;;;6.40;99.90;;;;;;4995855;28;20124;-23
2024/01/29 03:51:09;;;;;;;2.60;1.27;;;6.40;99.90;;;;;;4999226;28;20041;-21
2024/01/29 03:53:35;;;;;;;3.78;1.58;;;6.40;99.90;;;;;;5013738;28;20621;-20
2024/01/29 03:56:00;;;;;;;3.38;1.58;;;6.40;99.90;;;;;;4995517;28;20060;-20
2024/01/29 03:58:26;;;;;;;3.83;1.40;;;6.30;99.90;;;;;;5001238;28;20046;-23
2024/01/29 04:00:52;;;;;;;3.15;1.55;;;6.40;99.90;;;;;;5016357;28;20061;-19
2024/01/29 04:03:18;;;;;;;2.72;1.58;;;6.20;99.90;;;;;;4986335;28;20401;-20
2024/01/29 04:05:44;;;;;;;2.20;1.37;;;6.20;99.90;;;;;;4997357;28;20048;-20
2024/01/29 04:08:10;;;;;;;3.40;1.63;;;6.20;99.90;;;;;;5015965;28;20026;-24
2024/01/29 04:10:36;;;;;;;2.03;1.20;;;6.10;99.90;;;;;;5011792;28;20018;-20
2024/01/29 04:13:02;;;;;;;3.33;1.37;;;6.10;99.90;;;;;;5012408;28;20041;-20
2024/01/29 04:15:27;;;;;;;3.33;1.50;;;6.10;99.90;;;;;;5014748;28;20160;-20
2024/01/29 04:17:53;;;;;;;3.20;1.53;;;6.10;99.90;;;;;;5013052;28;20045;-21
2024/01/29 04:20:19;;;;;;;2.15;1.30;;;6.00;99.90;;;;;;4999875;28;20183;-20
2024/01/29 04:22:45;;;;;;;2.45;1.35;;;6.00;99.90;;;;;;5002536;28;20038;-20
2024/01/29 04:25:10;;;;;;;2.43;1.50;;;6.00;99.90;;;;;;5013716;28;20251;-27
2024/01/29 04:27:36;;;;;;;2.60;1.40;;;6.00;99.90;;;;;;5014912;28;20057;-23
2024/01/29 04:30:02;;;;;;;3.47;1.43;;;7.50;99.90;;;;;;4994414;28;20113;-21
2024/01/29 04:32:28;;;;;;;2.47;1.52;;;5.90;99.90;;;;;;4997625;28;20083;-20
2024/01/29 04:34:54;;;;;;;2.27;1.37;;;5.90;99.90;;;;;;5000280;28;20034;-20
2024/01/29 04:37:20;;;;;;;4.30;1.50;;;5.80;99.90;;;;;;5012281;28;20117;-21
2024/01/29 04:39:45;;;;;;;2.13;1.33;;;5.80;99.90;;;;;;5012916;28;20615;-20
2024/01/29 04:42:12;;;;;;;2.33;1.30;;;5.80;99.90;;;;;;5010495;28;20265;-21
2024/01/29 04:44:38;;;;;;;2.70;1.50;;;5.70;99.90;;;;;;5013220;28;20464;-22
2024/01/29 04:47:05;;;;;;;2.10;1.20;;;5.70;99.90;;;;;;5011516;28;20069;-22
2024/01/29 04:49:30;;;;;;;2.65;1.40;;;5.70;99.90;;;;;;5013370;28;20516;-21
2024/01/29 04:51:56;;;;;;;2.95;1.50;;;5.70;99.90;;;;;;5000175;28;20050;-20
2024/01/29 04:54:22;;;;;;;2.67;1.40;;;4.20;99.90;;;;;;5013663;28;20083;-20
2024/01/29 04:56:47;;;;;;;2.60;1.30;;;5.70;99.90;;;;;;4993539;28;20074;-20
2024/01/29 04:59:13;;;;;;;2.25;1.40;;;5.60;99.90;;;;;;5014331;28;20124;-20
2024/01/29 05:01:39;;;;;;;2.97;1.47;;;5.60;99.90;;;;;;5011595;28;20040;-21
2024/01/29 05:04:04;;;;;;;2.75;1.30;;;5.60;99.90;;;;;;5011412;28;20041;-22
2024/01/29 05:06:30;;;;;;;1.90;1.30;;;5.60;99.90;;;;;;5013719;28;20516;-19
2024/01/29 05:08:56;;;;;;;2.85;1.35;;;;;;;;;;4965143;28;20525;-20
2024/01/29 05:11:23;;;;;;;2.53;1.30;;;5.50;99.90;;;;;;5011879;28;20040;-20
2024/01/29 05:13:48;;;;;;;2.47;1.38;;;5.50;99.90;;;;;;5012662;28;20121;-20
2024/01/29 05:16:15;;;;;;;2.80;1.20;;;5.50;99.90;;;;;;4994777;28;20146;-20
2024/01/29 05:18:41;;;;;;;2.00;1.33;;;5.50;99.90;;;;;;5013087;28;20065;-22
2024/01/29 05:21:07;;;;;;;2.55;1.23;;;5.40;99.90;;;;;;5014594;28;20377;-19
2024/01/29 05:23:33;;;;;;;2.55;1.30;;;5.40;99.90;;;;;;5011597;28;20033;-23
2024/01/29 05:25:59;;;;;;;2.50;1.13;;;5.40;99.90;;;;;;4999019;28;20433;-22
2024/01/29 05:28:25;;;;;;;2.63;1.38;;;5.40;99.90;;;;;;5009378;28;20180;-19
2024/01/29 05:30:53;;;;;;;3.00;1.40;;;5.40;99.90;;;;;;5015686;28;20096;-21
2024/01/29 05:33:19;;;;;;;3.67;1.63;;;5.40;99.90;;;;;;5012327;28;20068;-21
2024/01/29 05:35:45;;;;;;;3.47;1.52;;;3.80;99.90;;;;;;5011776;28;20545;-25
2024/01/29 05:38:11;;;;;;;3.47;1.60;;;5.40;99.90;;;;;;5000889;28;20065;-22
2024/01/29 05:40:36;;;;;;;4.35;1.45;;;5.40;99.90;;;;;;5013512;28;20398;-21
2024/01/29 05:43:02;;;;;;;4.07;1.50;;;5.40;99.90;;;;;;4979763;28;20937;-23
2024/01/29 05:45:28;;;;;;;2.50;1.30;;;5.40;99.90;;;;;;5012046;28;20034;-21
2024/01/29 05:47:54;;;;;;;3.13;1.70;;;6.80;99.90;;;;;;5007739;28;20033;-21
2024/01/29 05:50:19;;;;;;;2.85;1.48;;;5.40;99.90;;;;;;5012747;28;20163;-21
2024/01/29 05:52:46;;;;;;;3.57;1.63;;;4.10;99.90;;;;;;5007828;28;20128;-22
2024/01/29 05:55:12;;;;;;;3.07;1.40;;;5.30;99.90;;;;;;5014306;28;20809;-23
2024/01/29 05:57:38;;;;;;;2.90;1.40;;;5.40;99.90;;;;;;5011514;28;20095;-21
2024/01/29 06:00:09;;;;;;;3.70;1.42;;;5.30;99.90;;;;;;4983705;28;20037;-21
2024/01/29 06:02:34;;;;;;;2.50;1.50;;;5.30;99.90;;;;;;4995492;28;20338;-21
2024/01/29 06:05:00;;;;;;;2.97;1.50;;;5.30;99.90;;;;;;5012387;28;20042;-21
2024/01/29 06:07:26;;;;;;;2.45;1.23;;;5.30;99.90;;;;;;5011859;28;20390;-20
2024/01/29 06:09:52;;;;;;;2.73;1.27;;;5.30;99.90;;;;;;4994416;28;20045;-23
2024/01/29 06:12:18;;;;;;;2.75;1.30;;;5.20;99.90;;;;;;5015860;28;20496;-22
2024/01/29 06:14:43;;;;;;;3.50;1.60;;;5.20;99.90;;;;;;5001372;28;20080;-21
2024/01/29 06:17:09;;;;;;;2.55;1.20;;;5.20;99.90;;;;;;5011263;28;20060;-24
2024/01/29 06:19:35;;;;;;;3.03;1.33;;;7.50;99.90;;;;;;5012291;28;20049;-22
2024/01/29 06:22:00;;;;;;;4.47;2.47;;;5.10;99.90;;;;;;4979868;28;20041;-20
2024/01/29 06:24:26;;;;;;;2.77;1.40;;;3.20;99.90;;;;;;5017229;28;20049;-20
2024/01/29 06:26:52;;;;;;;2.53;1.50;;;5.00;99.90;;;;;;4998804;28;20329;-21
2024/01/29 06:29:18;;;;;;;2.57;1.50;;;5.00;99.90;;;;;;5015638;28;20030;-22
2024/01/29 06:31:44;;;;;;;2.70;1.40;;;5.00;99.90;;;;;;5014614;28;20505;-21
2024/01/29 06:34:09;;;;;;;2.60;1.40;;;4.90;99.90;;;;;;5016617;28;20152;-21
2024/01/29 06:36:35;;;;;;;2.47;1.38;;;4.90;99.90;;;;;;5020417;28;20388;-22
2024/01/29 06:39:01;;;;;;;3.03;1.57;;;4.80;99.90;;;;;;5010645;28;20040;-21
2024/01/29 06:41:27;;;;;;;5.03;1.80;;;4.80;99.90;;;;;;5015912;28;20033;-20
2024/01/29 06:43:54;;;;;;;3.08;1.50;;;4.80;99.90;;;;;;5014097;28;20038;-20
2024/01/29 06:46:21;;;;;;;2.90;1.50;;;4.80;99.90;;;;;;5017357;28;20399;-20
2024/01/29 06:48:47;;;;;;;2.90;1.42;;;4.70;99.90;;;;;;5014133;28;20617;-19
2024/01/29 06:51:15;;;;;;;2.47;1.35;;;3.70;99.90;;;;;;5012372;28;20034;-19
2024/01/29 06:53:41;;;;;;;2.95;1.40;;;4.70;99.90;;;;;;5014690;28;20425;-18
2024/01/29 06:56:07;;;;;;;2.83;1.45;;;4.70;99.90;;;;;;4981352;28;20037;-18
2024/01/29 06:58:36;;;;;;;3.00;1.50;;;4.70;99.90;;;;;;5013371;28;20504;-18
2024/01/29 07:01:02;;;;;;;2.60;1.38;;;4.60;99.90;;;;;;5016156;28;20084;-18
2024/01/29 07:03:28;;;;;;;3.78;1.90;;;4.60;99.90;;;;;;5013153;28;20398;-19
2024/01/29 07:05:54;;;;;;;3.93;1.90;;;4.60;99.90;;;;;;4991625;28;20038;-18
2024/01/29 07:08:20;;;;;;;3.78;1.70;;;4.60;99.90;;;;;;5014705;28;20204;-19
2024/01/29 07:10:46;;;;;;;3.35;1.70;;;4.70;99.90;;;;;;5013544;28;20036;-19
2024/01/29 07:13:12;;;;;;;3.90;1.90;;;4.50;99.90;;;;;;5015858;28;20065;-18
2024/01/29 07:15:38;;;;;;;5.00;2.00;;;4.60;99.90;;;;;;5015725;28;20049;-18
2024/01/29 07:18:04;;;;;;;2.83;1.58;;;4.50;99.90;;;;;;5012306;28;20144;-19
2024/01/29 07:20:38;;;;;;;3.92;1.55;;;4.60;99.90;;;;;;5012744;28;20429;-17
2024/01/29 07:23:07;;;;;;;3.30;1.88;;;4.70;99.90;;;;;;5014136;28;20405;-19
2024/01/29 07:25:39;;;;;;;3.37;1.77;;;4.50;99.90;;;;;;5013675;28;20029;-17
2024/01/29 07:28:06;;;;;;;3.45;1.80;;;4.60;99.90;;;;;;5012493;28;20040;-19
2024/01/29 07:30:32;;;;;;;2.60;1.52;;;4.50;99.90;;;;;;5008815;28;20038;-18
2024/01/29 07:32:59;;;;;;;4.00;1.60;;;4.60;99.90;;;;;;5011771;28;20033;-20
2024/01/29 07:35:25;;;;;;;3.13;1.83;;;4.10;99.90;;;;;;4993806;28;20414;-18
2024/01/29 07:37:52;;;;;;;3.37;1.60;;;4.50;99.90;;;;;;5008864;28;20863;-19
2024/01/29 07:40:19;;;;;;;3.65;1.80;;;4.50;99.90;;;;;;5011264;28;20060;-22
2024/01/29 07:42:46;;;;;;;4.35;1.70;;;4.60;99.90;;;;;;5014654;28;20069;-20
2024/01/29 07:45:11;;;;;;;3.30;1.50;;;4.60;99.90;;;;;;5013087;28;20088;-18
2024/01/29 07:47:37;;;;;;;3.08;1.70;;;4.60;99.90;;;;;;4999679;28;20485;-19
2024/01/29 07:50:03;;;;;;;4.13;1.80;;;4.70;99.90;;;;;;5014303;28;20105;-20
2024/01/29 07:52:29;;;;;;;3.20;1.75;;;4.70;99.90;;;;;;4994664;28;20075;-18
2024/01/29 07:54:55;;;;;;;4.47;1.90;;;4.70;99.90;;;;;;4980052;28;20165;-20
2024/01/29 07:57:21;;;;;;;3.03;1.53;;;4.80;99.90;;;;;;4994050;28;20276;-18
2024/01/29 07:59:46;;;;;;;2.60;1.40;;;4.80;99.90;;;;;;4993668;28;20038;-19
2024/01/29 08:02:12;;;;;;;2.80;1.23;;;4.80;99.90;;;;;;4993409;28;20029;-18
2024/01/29 08:04:38;;;;;;;2.63;1.50;;;4.90;99.90;;;;;;4979412;28;20242;-18
2024/01/29 08:07:04;;;;;;;2.70;1.55;;;5.00;99.90;;;;;;4979917;28;20034;-20
2024/01/29 08:09:30;;;;;;;2.23;1.23;;;5.00;99.90;;;;;;4991756;28;20045;-19
2024/01/29 08:11:56;;;;;;;2.40;1.33;;;5.10;99.90;;;;;;4994033;28;20042;-20
2024/01/29 08:14:22;;;;;;;2.85;1.50;;;5.20;99.90;;;;;;4977429;28;20045;-22
2024/01/29 08:16:48;;;;;;;2.53;1.40;;;5.20;99.90;;;;;;4989228;28;20228;-21
2024/01/29 08:19:14;;;;;;;2.88;1.60;;;5.30;99.90;;;;;;4992150;28;20158;-21
2024/01/29 08:21:39;;;;;;;3.45;1.60;;;5.40;99.90;;;;;;4993687;28;20038;-23
2024/01/29 08:24:06;;;;;;;2.47;1.60;;;5.40;99.90;;;;;;4988763;28;20038;-19
2024/01/29 08:26:31;;;;;;;2.83;1.67;;;5.50;99.90;;;;;;4973670;28;20038;-21
2024/01/29 08:28:58;;;;;;;2.90;1.48;;;5.70;99.90;;;;;;4984164;28;20676;-21
2024/01/29 08:31:24;;;;;;;3.35;1.90;;;5.70;99.90;;;;;;4964198;28;20037;-20
2024/01/29 08:33:50;;;;;;;3.80;2.13;;;5.80;99.90;;;;;;4992478;28;20030;-21
2024/01/29 08:36:20;;;;;;;4.40;2.10;;;5.90;99.90;;;;;;4992405;28;20072;-23
2024/01/29 08:38:46;;;;;;;4.80;2.55;;;6.00;99.90;;;;;;4964033;28;20057;-20
2024/01/29 08:41:12;;;;;;;4.22;2.08;;;6.20;99.90;;;;;;4991024;28;20070;-21
2024/01/29 08:43:38;;;;;;;3.83;2.30;;;6.30;99.90;;;;;;4991695;28;20125;-21
2024/01/29 08:46:04;;;;;;;3.97;2.40;;;6.40;99.90;;;;;;4991323;28;21043;-20
2024/01/29 08:48:30;;;;;;;5.75;2.25;;;6.60;99.90;;;;;;4990713;28;20117;-24
2024/01/29 08:50:56;;;;;;;3.77;2.10;;;6.70;99.90;;;;;;4987248;28;20120;-21
2024/01/29 08:53:22;;;;;;;3.83;2.05;;;6.80;99.90;;;;;;5013393;28;20567;-20
2024/01/29 08:55:47;;;;;;;4.47;2.33;;;7.00;99.90;;;;;;5011275;28;20037;-20
2024/01/29 08:58:13;;;;;;;3.88;2.38;;;7.10;99.90;;;;;;5012297;28;20026;-21
2024/01/29 09:00:39;;;;;;;4.70;2.55;;;7.30;99.90;;;;;;5010642;28;20037;-21
2024/01/29 09:03:05;;;;;;;6.37;2.60;;;7.40;99.90;;;;;;5009868;28;20856;-20
2024/01/29 09:05:30;;;;;;;3.75;2.15;;;7.60;99.90;;;;;;5009356;28;20478;-21
2024/01/29 09:07:56;;;;;;;5.03;2.67;;;7.70;99.90;;;;;;5011190;28;20549;-21
2024/01/29 09:10:23;;;;;;;4.70;2.45;;;7.90;99.90;;;;;;5009533;28;20668;-22
2024/01/29 09:12:48;;;;;;;5.27;2.77;;;8.10;99.90;;;;;;5012318;28;20474;-22
2024/01/29 09:15:14;;;;;;;5.03;2.40;;;8.30;99.90;;;;;;5006617;28;20100;-20
2024/01/29 09:17:40;;;;;;;3.63;2.27;;;8.50;99.90;;;;;;4998329;28;20390;-18
2024/01/29 09:20:10;;;;;;;4.15;2.40;;;8.70;99.90;;;;;;5010139;28;20124;-18
2024/01/29 09:22:35;;;;;;;3.75;2.33;;;8.90;99.90;;;;;;5011416;28;20135;-17
2024/01/29 09:25:01;;;;;;;5.32;2.70;;;9.10;99.90;;;;;;5010265;28;20341;-17
2024/01/29 09:27:29;;;;;;;5.33;3.10;;;9.30;99.90;;;;;;4996626;28;20037;-20
2024/01/29 09:29:55;;;;;;;4.40;2.65;;;9.50;99.90;;;;;;5010863;28;20530;-19
2024/01/29 09:32:20;;;;;;;4.97;2.70;;;9.60;99.90;;;;;;5009416;28;20033;-19
2024/01/29 09:34:46;;;;;;;6.17;2.77;;;9.90;99.90;;;;;;5009017;28;20034;-19
2024/01/29 09:37:12;;;;;;;4.55;2.97;;;10.10;99.90;;;;;;5013195;28;20045;-22
2024/01/29 09:39:37;;;;;;;4.60;2.50;;;10.30;99.90;;;;;;5011041;28;20037;-20
2024/01/29 09:42:05;;;;;;;4.35;2.65;;;10.50;99.90;;;;;;5010426;28;20038;-20
2024/01/29 09:44:37;;;;;;;5.18;3.13;;;10.70;99.90;;;;;;5010664;28;20038;-19
2024/01/29 09:47:05;;;;;;;4.73;2.50;;;11.00;99.90;;;;;;5009811;28;20072;-21
2024/01/29 09:49:35;;;;;;;4.80;2.50;;;11.30;99.90;;;;;;5010941;28;20294;-20
2024/01/29 09:52:04;;;;;;;4.72;2.50;;;11.60;99.90;;;;;;5009106;28;20158;-23
2024/01/29 09:54:30;;;;;;;3.63;2.30;;;11.90;99.90;;;;;;5000665;28;20526;-18
2024/01/29 09:56:56;;;;;;;4.57;2.50;;;12.30;99.90;;;;;;5008147;28;20289;-22
2024/01/29 09:59:22;;;;;;;3.80;2.27;;;12.60;99.90;;;;;;5008290;28;20029;-19
2024/01/29 10:01:48;;;;;;;4.97;2.33;;;13.00;99.90;;;;;;4992572;28;20034;-20
2024/01/29 10:04:15;;;;;;;4.35;2.72;;;13.50;99.90;;;;;;4998381;28;20038;-23
2024/01/29 10:06:40;;;;;;;3.23;2.23;;;13.90;99.90;;;;;;5008976;28;20065;-20
2024/01/29 10:09:06;;;;;;;4.22;2.63;;;14.30;99.90;;;;;;5007528;28;20065;-21
2024/01/29 10:11:32;;;;;;;3.58;2.55;;;14.70;99.90;;;;;;5010750;28;20042;-20
2024/01/29 10:13:59;;;;;;;4.30;2.40;;;15.10;99.90;;;;;;5010915;28;20647;-20
2024/01/29 10:16:26;;;;;;;4.10;2.90;;;15.40;99.90;;;;;;5007256;28;20068;-19
2024/01/29 10:18:59;;;;;;;3.58;2.60;;;15.80;99.90;;;;;;5009767;28;20041;-18
2024/01/29 10:21:25;;;;;;;3.60;2.33;;;16.10;99.90;;;;;;5006133;28;20057;-18
2024/01/29 10:23:57;;;;;;;3.20;2.45;;;16.40;99.90;;;;;;5011300;28;20096;-18
2024/01/29 10:26:24;;;;;;;3.80;2.47;;;16.70;99.90;;;;;;5007189;28;20018;-18
2024/01/29 10:29:06;;;;;;;4.85;2.83;;;17.00;99.90;;;;;;5005903;28;20454;-19
2024/01/29 10:31:33;;;;;;;4.72;2.90;;;17.30;99.90;;;;;;5009742;28;20203;-18
2024/01/29 10:33:59;;;;;;;3.97;2.80;;;17.60;99.90;;;;;;4998027;28;20041;-19
2024/01/29 10:36:25;;;;;;;4.72;2.80;;;17.80;99.90;;;;;;5012916;28;20421;-18
2024/01/29 10:38:52;;;;;;;5.17;3.00;;;17.90;99.90;;;;;;4996274;28;20512;-18
2024/01/29 10:41:21;;;;;;;4.28;2.92;;;18.00;99.90;;;;;;5008243;28;20447;-18
2024/01/29 10:43:54;;;;;;;3.97;2.83;;;18.20;99.90;;;;;;4994819;28;20504;-18
2024/01/29 10:46:23;;;;;;;4.65;3.05;;;18.30;99.90;;;;;;4991282;28;20796;-19
2024/01/29 10:48:51;;;;;;;4.20;3.20;;;18.50;99.90;;;;;;5008142;28;20038;-18
2024/01/29 10:51:17;;;;;;;3.93;2.93;;;18.60;99.90;;;;;;5009539;28;20211;-17
2024/01/29 10:53:45;;;;;;;4.10;2.90;;;18.70;99.90;;;;;;5006987;28;20458;-17
2024/01/29 10:56:11;;;;;;;4.88;3.08;;;18.80;99.90;;;;;;5008530;28;20033;-18
2024/01/29 10:58:38;;;;;;;4.13;2.70;;;19.00;99.90;;;;;;5011179;28;20124;-18
2024/01/29 11:01:05;;;;;;;5.55;3.13;;;19.10;99.90;;;;;;5008653;28;20080;-18
2024/01/29 11:03:35;;;;;;;4.20;2.90;;;19.30;99.90;;;;;;5009360;28;20103;-18
2024/01/29 11:06:22;;;;;;;6.75;3.05;;;19.50;99.90;;;;;;5009703;28;20266;-18
2024/01/29 11:08:56;;;;;;;4.55;3.05;;;19.70;99.90;;;;;;5012293;28;20385;-18
2024/01/29 11:11:23;;;;;;;5.18;3.03;;;19.90;99.90;;;;;;4984809;28;20255;-19
2024/01/29 11:13:49;;;;;;;4.32;2.83;;;20.10;99.90;;;;;;5011063;28;20053;-18
2024/01/29 11:16:15;;;;;;;4.03;2.87;;;20.20;99.90;;;;;;4993713;28;20266;-18
2024/01/29 11:18:42;;;;;;;4.32;3.08;;;20.30;99.90;;;;;;5014070;28;20071;-18
2024/01/29 11:21:14;;;;;;;4.25;3.40;;;20.40;99.90;;;;;;5011183;28;20168;-18
2024/01/29 11:23:47;;;;;;;4.28;3.22;;;20.60;99.90;;;;;;5010470;28;20022;-18
2024/01/29 11:26:18;;;;;;;4.75;3.45;;;20.80;99.90;;;;;;4995803;28;20025;-18
2024/01/29 11:28:44;;;;;;;4.53;3.07;;;20.90;99.90;;;;;;5011871;28;20165;-18
2024/01/29 11:31:13;;;;;;;4.85;3.65;;;21.10;99.90;;;;;;5011893;28;20120;-18
2024/01/29 11:33:39;;;;;;;4.95;3.53;;;21.20;99.90;;;;;;4997066;28;20429;-19
2024/01/29 11:36:12;;;;;;;5.43;3.10;;;21.40;99.90;;;;;;4997554;28;20033;-18
2024/01/29 11:38:39;;;;;;;4.93;3.42;;;21.50;99.90;;;;;;5013120;28;20792;-21
2024/01/29 11:41:05;;;;;;;5.03;3.50;;;21.70;99.90;;;;;;5007532;28;20464;-18
2024/01/29 11:43:32;;;;;;;5.43;3.30;;;21.90;99.90;;;;;;5011090;28;20026;-18
2024/01/29 11:45:58;;;;;;;5.53;3.72;;;22.10;99.90;;;;;;5011505;28;20425;-17
2024/01/29 11:48:24;;;;;;;4.70;3.40;;;22.30;99.90;;;;;;5011618;28;20080;-22
2024/01/29 11:50:51;;;;;;;5.07;3.53;;;22.50;99.90;;;;;;5009849;28;20311;-21
2024/01/29 11:53:27;;;;;;;4.47;3.53;;;22.70;99.90;;;;;;5011027;28;20533;-21
2024/01/29 11:55:54;;;;;;;4.88;3.45;;;22.90;99.90;;;;;;4992794;28;20457;-21
2024/01/29 11:58:22;;;;;;;5.90;3.70;;;23.00;99.90;;;;;;4997129;28;20041;-20
2024/01/29 12:00:49;;;;;;;5.33;3.77;;;23.00;99.90;;;;;;4996762;28;20045;-22
2024/01/29 12:03:21;;;;;;;6.20;3.95;;;23.10;99.90;;;;;;4996364;28;20124;-22
2024/01/29 12:05:47;;;;;;;5.60;3.97;;;23.20;99.90;;;;;;5009010;28;20682;-21
2024/01/29 12:08:14;;;;;;;6.00;3.85;;;23.30;99.90;;;;;;4998172;28;20033;-19
2024/01/29 12:10:41;;;;;;;5.82;4.20;;;23.40;99.90;;;;;;5013479;28;20576;-20
2024/01/29 12:13:16;;;;;;;5.47;3.83;;;23.50;99.90;;;;;;4996481;28;20033;-24
2024/01/29 12:15:43;;;;;;;4.82;3.97;;;23.50;99.90;;;;;;5012254;28;20034;-22
2024/01/29 12:18:15;;;;;;;5.53;3.70;;;23.60;99.90;;;;;;4997257;28;20044;-22
2024/01/29 12:20:41;;;;;;;5.18;3.72;;;23.70;99.90;;;;;;5000134;28;20033;-21
2024/01/29 12:23:07;;;;;;;5.63;3.97;;;23.70;99.90;;;;;;5011763;28;20037;-22
2024/01/29 12:25:33;;;;;;;5.22;3.50;;;23.70;99.90;;;;;;5009676;28;20034;-22
2024/01/29 12:28:03;;;;;;;4.97;3.75;;;23.70;99.90;;;;;;4991251;28;20334;-20
2024/01/29 12:30:30;;;;;;;6.88;4.10;;;23.60;99.90;;;;;;5002035;28;20033;-20
2024/01/29 12:32:56;;;;;;;5.72;3.58;;;23.60;99.90;;;;;;4997731;28;20054;-20
2024/01/29 12:35:26;;;;;;;6.57;3.90;;;23.50;99.90;;;;;;5010893;28;20239;-21
2024/01/29 12:37:52;;;;;;;4.93;3.80;;;23.50;99.90;;;;;;5010517;28;20038;-20
2024/01/29 12:40:18;;;;;;;4.90;3.50;;;23.40;99.90;;;;;;4977232;28;20036;-19
2024/01/29 12:42:43;;;;;;;4.50;3.50;;;23.30;99.90;;;;;;5012714;28;20029;-19
2024/01/29 12:45:09;;;;;;;5.05;3.40;;;23.20;99.90;;;;;;4996659;28;20308;-20
2024/01/29 12:47:35;;;;;;;4.63;3.03;;;23.10;99.90;;;;;;4975094;28;20422;-18
2024/01/29 12:50:01;;;;;;;5.33;3.53;;;23.00;99.90;;;;;;4998221;28;20087;-19
2024/01/29 12:52:28;;;;;;;6.25;3.70;;;22.90;99.90;;;;;;5007911;28;20053;-18